<?xml version="1.0" encoding="UTF-8" standalone="no" ?>
<gpx xmlns="http://www.topografix.com/GPX/1/1" xmlns:xsi="http://www.w3.org/2001/XMLSchema-instance" xsi:schemaLocation="http://www.topografix.com/GPX/1/1 http://www.topografix.com/GPX/1/1/gpx.xsd" version="1.1" creator="VisuGPX - https://www.visugpx.com">
  <metadata>
    <name>Pointe Blanche </name>
    <desc><![CDATA[Pointe blanche en boucle par le passage de Pellier.
Randonnée Sombardier 
Facile.]]></desc>
  </metadata>
  <trk>
    <name><![CDATA[2015-09-20-01]]></name>
    <trkseg>
      <trkpt lat="45.99282" lon="6.47538">
        <ele>1637.6</ele>
        <time>2015-09-20T07:21:22Z</time>
      </trkpt>
      <trkpt lat="45.99283" lon="6.47539">
        <ele>1637.6</ele>
        <time>2015-09-20T07:21:23Z</time>
      </trkpt>
      <trkpt lat="45.99289" lon="6.47551">
        <ele>1638.6</ele>
        <time>2015-09-20T07:21:34Z</time>
      </trkpt>
      <trkpt lat="45.99294" lon="6.47562">
        <ele>1639.6</ele>
        <time>2015-09-20T07:21:43Z</time>
      </trkpt>
      <trkpt lat="45.99302" lon="6.4757">
        <ele>1643.6</ele>
        <time>2015-09-20T07:21:51Z</time>
      </trkpt>
      <trkpt lat="45.99305" lon="6.47582">
        <ele>1645.6</ele>
        <time>2015-09-20T07:21:59Z</time>
      </trkpt>
      <trkpt lat="45.99309" lon="6.47594">
        <ele>1645.6</ele>
        <time>2015-09-20T07:22:08Z</time>
      </trkpt>
      <trkpt lat="45.99317" lon="6.47602">
        <ele>1646.6</ele>
        <time>2015-09-20T07:22:20Z</time>
      </trkpt>
      <trkpt lat="45.99323" lon="6.47614">
        <ele>1648.6</ele>
        <time>2015-09-20T07:22:32Z</time>
      </trkpt>
      <trkpt lat="45.9933" lon="6.47621">
        <ele>1649.6</ele>
        <time>2015-09-20T07:22:43Z</time>
      </trkpt>
      <trkpt lat="45.99336" lon="6.47633">
        <ele>1652.6</ele>
        <time>2015-09-20T07:22:53Z</time>
      </trkpt>
      <trkpt lat="45.99341" lon="6.47644">
        <ele>1654.6</ele>
        <time>2015-09-20T07:23:03Z</time>
      </trkpt>
      <trkpt lat="45.99348" lon="6.47652">
        <ele>1657.6</ele>
        <time>2015-09-20T07:23:13Z</time>
      </trkpt>
      <trkpt lat="45.99356" lon="6.47663">
        <ele>1658.6</ele>
        <time>2015-09-20T07:23:25Z</time>
      </trkpt>
      <trkpt lat="45.99362" lon="6.47674">
        <ele>1661.6</ele>
        <time>2015-09-20T07:23:34Z</time>
      </trkpt>
      <trkpt lat="45.99371" lon="6.47676">
        <ele>1660.6</ele>
        <time>2015-09-20T07:24:58Z</time>
      </trkpt>
      <trkpt lat="45.99379" lon="6.4767">
        <ele>1665.6</ele>
        <time>2015-09-20T07:25:10Z</time>
      </trkpt>
      <trkpt lat="45.99375" lon="6.47657">
        <ele>1669.6</ele>
        <time>2015-09-20T07:25:19Z</time>
      </trkpt>
      <trkpt lat="45.99372" lon="6.4764">
        <ele>1672.6</ele>
        <time>2015-09-20T07:25:31Z</time>
      </trkpt>
      <trkpt lat="45.9937" lon="6.47626">
        <ele>1671.6</ele>
        <time>2015-09-20T07:25:40Z</time>
      </trkpt>
      <trkpt lat="45.9937" lon="6.47613">
        <ele>1670.6</ele>
        <time>2015-09-20T07:25:49Z</time>
      </trkpt>
      <trkpt lat="45.99378" lon="6.47621">
        <ele>1677.6</ele>
        <time>2015-09-20T07:26:04Z</time>
      </trkpt>
      <trkpt lat="45.99384" lon="6.47635">
        <ele>1677.6</ele>
        <time>2015-09-20T07:26:15Z</time>
      </trkpt>
      <trkpt lat="45.99389" lon="6.47648">
        <ele>1678.6</ele>
        <time>2015-09-20T07:26:24Z</time>
      </trkpt>
      <trkpt lat="45.99395" lon="6.4766">
        <ele>1680.6</ele>
        <time>2015-09-20T07:26:33Z</time>
      </trkpt>
      <trkpt lat="45.99402" lon="6.47669">
        <ele>1680.6</ele>
        <time>2015-09-20T07:26:43Z</time>
      </trkpt>
      <trkpt lat="45.99409" lon="6.47679">
        <ele>1683.6</ele>
        <time>2015-09-20T07:26:51Z</time>
      </trkpt>
      <trkpt lat="45.99417" lon="6.47685">
        <ele>1684.6</ele>
        <time>2015-09-20T07:26:59Z</time>
      </trkpt>
      <trkpt lat="45.99443" lon="6.47681">
        <ele>1683.6</ele>
        <time>2015-09-20T07:27:28Z</time>
      </trkpt>
      <trkpt lat="45.99452" lon="6.4768">
        <ele>1683.6</ele>
        <time>2015-09-20T07:27:34Z</time>
      </trkpt>
      <trkpt lat="45.99462" lon="6.47681">
        <ele>1686.6</ele>
        <time>2015-09-20T07:27:40Z</time>
      </trkpt>
      <trkpt lat="45.99472" lon="6.4768">
        <ele>1685.6</ele>
        <time>2015-09-20T07:27:49Z</time>
      </trkpt>
      <trkpt lat="45.99483" lon="6.47687">
        <ele>1688.6</ele>
        <time>2015-09-20T07:27:55Z</time>
      </trkpt>
      <trkpt lat="45.99492" lon="6.47694">
        <ele>1687.6</ele>
        <time>2015-09-20T07:28:01Z</time>
      </trkpt>
      <trkpt lat="45.995" lon="6.477">
        <ele>1687.6</ele>
        <time>2015-09-20T07:28:08Z</time>
      </trkpt>
      <trkpt lat="45.9951" lon="6.47704">
        <ele>1687.6</ele>
        <time>2015-09-20T07:28:15Z</time>
      </trkpt>
      <trkpt lat="45.99519" lon="6.47708">
        <ele>1686.6</ele>
        <time>2015-09-20T07:28:27Z</time>
      </trkpt>
      <trkpt lat="45.99529" lon="6.47705">
        <ele>1685.6</ele>
        <time>2015-09-20T07:28:38Z</time>
      </trkpt>
      <trkpt lat="45.99542" lon="6.47702">
        <ele>1685.6</ele>
        <time>2015-09-20T07:28:55Z</time>
      </trkpt>
      <trkpt lat="45.99549" lon="6.47713">
        <ele>1688.6</ele>
        <time>2015-09-20T07:29:04Z</time>
      </trkpt>
      <trkpt lat="45.99557" lon="6.47718">
        <ele>1690.6</ele>
        <time>2015-09-20T07:29:15Z</time>
      </trkpt>
      <trkpt lat="45.99568" lon="6.47726">
        <ele>1693.6</ele>
        <time>2015-09-20T07:29:41Z</time>
      </trkpt>
      <trkpt lat="45.99574" lon="6.47736">
        <ele>1696.6</ele>
        <time>2015-09-20T07:29:54Z</time>
      </trkpt>
      <trkpt lat="45.99574" lon="6.47723">
        <ele>1694.6</ele>
        <time>2015-09-20T07:30:11Z</time>
      </trkpt>
      <trkpt lat="45.99579" lon="6.47678">
        <ele>1700.6</ele>
        <time>2015-09-20T07:30:53Z</time>
      </trkpt>
      <trkpt lat="45.99583" lon="6.47666">
        <ele>1705.6</ele>
        <time>2015-09-20T07:31:18Z</time>
      </trkpt>
      <trkpt lat="45.9959" lon="6.47656">
        <ele>1708.6</ele>
        <time>2015-09-20T07:31:36Z</time>
      </trkpt>
      <trkpt lat="45.99597" lon="6.47646">
        <ele>1712.6</ele>
        <time>2015-09-20T07:31:48Z</time>
      </trkpt>
      <trkpt lat="45.99598" lon="6.47632">
        <ele>1715.6</ele>
        <time>2015-09-20T07:32:01Z</time>
      </trkpt>
      <trkpt lat="45.99599" lon="6.47619">
        <ele>1714.6</ele>
        <time>2015-09-20T07:32:13Z</time>
      </trkpt>
      <trkpt lat="45.99602" lon="6.47606">
        <ele>1718.6</ele>
        <time>2015-09-20T07:32:30Z</time>
      </trkpt>
      <trkpt lat="45.99607" lon="6.47595">
        <ele>1718.6</ele>
        <time>2015-09-20T07:32:40Z</time>
      </trkpt>
      <trkpt lat="45.99617" lon="6.47591">
        <ele>1729.6</ele>
        <time>2015-09-20T07:33:00Z</time>
      </trkpt>
      <trkpt lat="45.99626" lon="6.47598">
        <ele>1729.6</ele>
        <time>2015-09-20T07:33:14Z</time>
      </trkpt>
      <trkpt lat="45.99632" lon="6.47608">
        <ele>1729.6</ele>
        <time>2015-09-20T07:33:27Z</time>
      </trkpt>
      <trkpt lat="45.99642" lon="6.4761">
        <ele>1731.6</ele>
        <time>2015-09-20T07:33:42Z</time>
      </trkpt>
      <trkpt lat="45.99651" lon="6.47618">
        <ele>1734.6</ele>
        <time>2015-09-20T07:33:55Z</time>
      </trkpt>
      <trkpt lat="45.99661" lon="6.4762">
        <ele>1737.6</ele>
        <time>2015-09-20T07:34:11Z</time>
      </trkpt>
      <trkpt lat="45.99674" lon="6.47627">
        <ele>1739.6</ele>
        <time>2015-09-20T07:34:34Z</time>
      </trkpt>
      <trkpt lat="45.99682" lon="6.47633">
        <ele>1740.6</ele>
        <time>2015-09-20T07:34:53Z</time>
      </trkpt>
      <trkpt lat="45.99692" lon="6.47639">
        <ele>1742.6</ele>
        <time>2015-09-20T07:35:04Z</time>
      </trkpt>
      <trkpt lat="45.99701" lon="6.4764">
        <ele>1744.6</ele>
        <time>2015-09-20T07:35:13Z</time>
      </trkpt>
      <trkpt lat="45.99711" lon="6.47636">
        <ele>1741.6</ele>
        <time>2015-09-20T07:35:55Z</time>
      </trkpt>
      <trkpt lat="45.9972" lon="6.47635">
        <ele>1742.6</ele>
        <time>2015-09-20T07:36:02Z</time>
      </trkpt>
      <trkpt lat="45.9973" lon="6.47638">
        <ele>1742.6</ele>
        <time>2015-09-20T07:36:10Z</time>
      </trkpt>
      <trkpt lat="45.99738" lon="6.47644">
        <ele>1739.6</ele>
        <time>2015-09-20T07:36:27Z</time>
      </trkpt>
      <trkpt lat="45.99741" lon="6.47658">
        <ele>1744.6</ele>
        <time>2015-09-20T07:36:48Z</time>
      </trkpt>
      <trkpt lat="45.9974" lon="6.47671">
        <ele>1746.6</ele>
        <time>2015-09-20T07:37:03Z</time>
      </trkpt>
      <trkpt lat="45.99736" lon="6.47685">
        <ele>1752.6</ele>
        <time>2015-09-20T07:37:18Z</time>
      </trkpt>
      <trkpt lat="45.99745" lon="6.47689">
        <ele>1758.6</ele>
        <time>2015-09-20T07:38:56Z</time>
      </trkpt>
      <trkpt lat="45.99751" lon="6.47677">
        <ele>1760.6</ele>
        <time>2015-09-20T07:39:14Z</time>
      </trkpt>
      <trkpt lat="45.99754" lon="6.47664">
        <ele>1760.6</ele>
        <time>2015-09-20T07:39:24Z</time>
      </trkpt>
      <trkpt lat="45.99762" lon="6.47655">
        <ele>1761.6</ele>
        <time>2015-09-20T07:39:36Z</time>
      </trkpt>
      <trkpt lat="45.99773" lon="6.47646">
        <ele>1764.6</ele>
        <time>2015-09-20T07:39:50Z</time>
      </trkpt>
      <trkpt lat="45.99781" lon="6.47639">
        <ele>1758.6</ele>
        <time>2015-09-20T07:40:03Z</time>
      </trkpt>
      <trkpt lat="45.99792" lon="6.47638">
        <ele>1760.6</ele>
        <time>2015-09-20T07:40:09Z</time>
      </trkpt>
      <trkpt lat="45.998" lon="6.47632">
        <ele>1758.6</ele>
        <time>2015-09-20T07:40:18Z</time>
      </trkpt>
      <trkpt lat="45.99809" lon="6.4763">
        <ele>1761.6</ele>
        <time>2015-09-20T07:40:28Z</time>
      </trkpt>
      <trkpt lat="45.9982" lon="6.47631">
        <ele>1763.6</ele>
        <time>2015-09-20T07:40:42Z</time>
      </trkpt>
      <trkpt lat="45.99829" lon="6.47636">
        <ele>1765.6</ele>
        <time>2015-09-20T07:41:01Z</time>
      </trkpt>
      <trkpt lat="45.99838" lon="6.47635">
        <ele>1768.6</ele>
        <time>2015-09-20T07:41:40Z</time>
      </trkpt>
      <trkpt lat="45.99847" lon="6.47651">
        <ele>1775.6</ele>
        <time>2015-09-20T07:42:08Z</time>
      </trkpt>
      <trkpt lat="45.99859" lon="6.47668">
        <ele>1773.6</ele>
        <time>2015-09-20T07:42:29Z</time>
      </trkpt>
      <trkpt lat="45.99859" lon="6.47655">
        <ele>1776.6</ele>
        <time>2015-09-20T07:42:50Z</time>
      </trkpt>
      <trkpt lat="45.99862" lon="6.47642">
        <ele>1790.6</ele>
        <time>2015-09-20T07:43:18Z</time>
      </trkpt>
      <trkpt lat="45.99864" lon="6.47629">
        <ele>1793.6</ele>
        <time>2015-09-20T07:43:47Z</time>
      </trkpt>
      <trkpt lat="45.99865" lon="6.47616">
        <ele>1790.6</ele>
        <time>2015-09-20T07:43:59Z</time>
      </trkpt>
      <trkpt lat="45.99865" lon="6.47603">
        <ele>1796.6</ele>
        <time>2015-09-20T07:44:17Z</time>
      </trkpt>
      <trkpt lat="45.99875" lon="6.476">
        <ele>1801.6</ele>
        <time>2015-09-20T07:44:40Z</time>
      </trkpt>
      <trkpt lat="45.99883" lon="6.47606">
        <ele>1804.6</ele>
        <time>2015-09-20T07:44:58Z</time>
      </trkpt>
      <trkpt lat="45.99891" lon="6.47611">
        <ele>1807.6</ele>
        <time>2015-09-20T07:45:21Z</time>
      </trkpt>
      <trkpt lat="45.9989" lon="6.47598">
        <ele>1810.6</ele>
        <time>2015-09-20T07:45:47Z</time>
      </trkpt>
      <trkpt lat="45.99893" lon="6.47585">
        <ele>1815.6</ele>
        <time>2015-09-20T07:46:26Z</time>
      </trkpt>
      <trkpt lat="45.99892" lon="6.47572">
        <ele>1818.6</ele>
        <time>2015-09-20T07:46:47Z</time>
      </trkpt>
      <trkpt lat="45.99893" lon="6.47554">
        <ele>1816.6</ele>
        <time>2015-09-20T07:47:08Z</time>
      </trkpt>
      <trkpt lat="45.99893" lon="6.47541">
        <ele>1823.6</ele>
        <time>2015-09-20T07:47:29Z</time>
      </trkpt>
      <trkpt lat="45.99901" lon="6.47533">
        <ele>1828.6</ele>
        <time>2015-09-20T07:47:59Z</time>
      </trkpt>
      <trkpt lat="45.99911" lon="6.47543">
        <ele>1837.6</ele>
        <time>2015-09-20T07:48:27Z</time>
      </trkpt>
      <trkpt lat="45.99919" lon="6.47532">
        <ele>1832.6</ele>
        <time>2015-09-20T07:48:54Z</time>
      </trkpt>
      <trkpt lat="45.99926" lon="6.47541">
        <ele>1839.6</ele>
        <time>2015-09-20T07:49:28Z</time>
      </trkpt>
      <trkpt lat="45.99929" lon="6.47528">
        <ele>1841.6</ele>
        <time>2015-09-20T07:49:52Z</time>
      </trkpt>
      <trkpt lat="45.99937" lon="6.47535">
        <ele>1857.6</ele>
        <time>2015-09-20T07:50:36Z</time>
      </trkpt>
      <trkpt lat="45.99936" lon="6.47548">
        <ele>1855.6</ele>
        <time>2015-09-20T07:50:55Z</time>
      </trkpt>
      <trkpt lat="45.99943" lon="6.47557">
        <ele>1856.6</ele>
        <time>2015-09-20T07:51:13Z</time>
      </trkpt>
      <trkpt lat="45.99954" lon="6.47551">
        <ele>1858.6</ele>
        <time>2015-09-20T07:51:29Z</time>
      </trkpt>
      <trkpt lat="45.99961" lon="6.47543">
        <ele>1864.6</ele>
        <time>2015-09-20T07:52:21Z</time>
      </trkpt>
      <trkpt lat="45.99969" lon="6.47533">
        <ele>1865.6</ele>
        <time>2015-09-20T07:52:46Z</time>
      </trkpt>
      <trkpt lat="45.99974" lon="6.47522">
        <ele>1867.6</ele>
        <time>2015-09-20T07:53:03Z</time>
      </trkpt>
      <trkpt lat="45.99983" lon="6.47523">
        <ele>1868.6</ele>
        <time>2015-09-20T07:53:46Z</time>
      </trkpt>
      <trkpt lat="45.99985" lon="6.47509">
        <ele>1871.6</ele>
        <time>2015-09-20T07:54:04Z</time>
      </trkpt>
      <trkpt lat="45.99994" lon="6.47503">
        <ele>1881.6</ele>
        <time>2015-09-20T07:54:34Z</time>
      </trkpt>
      <trkpt lat="45.99998" lon="6.47516">
        <ele>1888.6</ele>
        <time>2015-09-20T07:55:23Z</time>
      </trkpt>
      <trkpt lat="46.00001" lon="6.47528">
        <ele>1890.6</ele>
        <time>2015-09-20T07:55:39Z</time>
      </trkpt>
      <trkpt lat="46.00009" lon="6.47534">
        <ele>1894.6</ele>
        <time>2015-09-20T07:56:04Z</time>
      </trkpt>
      <trkpt lat="46.00015" lon="6.47522">
        <ele>1898.6</ele>
        <time>2015-09-20T07:56:37Z</time>
      </trkpt>
      <trkpt lat="46.0002" lon="6.47507">
        <ele>1898.6</ele>
        <time>2015-09-20T07:56:57Z</time>
      </trkpt>
      <trkpt lat="46.00022" lon="6.47493">
        <ele>1902.6</ele>
        <time>2015-09-20T07:57:15Z</time>
      </trkpt>
      <trkpt lat="46.00028" lon="6.47482">
        <ele>1904.6</ele>
        <time>2015-09-20T07:57:32Z</time>
      </trkpt>
      <trkpt lat="46.00037" lon="6.47485">
        <ele>1912.6</ele>
        <time>2015-09-20T07:57:58Z</time>
      </trkpt>
      <trkpt lat="46.00041" lon="6.47497">
        <ele>1912.6</ele>
        <time>2015-09-20T07:58:16Z</time>
      </trkpt>
      <trkpt lat="46.00047" lon="6.47508">
        <ele>1914.6</ele>
        <time>2015-09-20T07:58:33Z</time>
      </trkpt>
      <trkpt lat="46.0005" lon="6.47522">
        <ele>1915.6</ele>
        <time>2015-09-20T07:58:49Z</time>
      </trkpt>
      <trkpt lat="46.00059" lon="6.4752">
        <ele>1921.6</ele>
        <time>2015-09-20T07:59:20Z</time>
      </trkpt>
      <trkpt lat="46.00063" lon="6.47508">
        <ele>1927.6</ele>
        <time>2015-09-20T08:00:01Z</time>
      </trkpt>
      <trkpt lat="46.00065" lon="6.47496">
        <ele>1928.6</ele>
        <time>2015-09-20T08:00:20Z</time>
      </trkpt>
      <trkpt lat="46.0007" lon="6.47484">
        <ele>1930.6</ele>
        <time>2015-09-20T08:00:37Z</time>
      </trkpt>
      <trkpt lat="46.00071" lon="6.47471">
        <ele>1933.6</ele>
        <time>2015-09-20T08:00:53Z</time>
      </trkpt>
      <trkpt lat="46.0008" lon="6.47471">
        <ele>1937.6</ele>
        <time>2015-09-20T08:01:22Z</time>
      </trkpt>
      <trkpt lat="46.00088" lon="6.47479">
        <ele>1937.6</ele>
        <time>2015-09-20T08:01:35Z</time>
      </trkpt>
      <trkpt lat="46.00094" lon="6.47491">
        <ele>1942.6</ele>
        <time>2015-09-20T08:01:56Z</time>
      </trkpt>
      <trkpt lat="46.00102" lon="6.47498">
        <ele>1942.6</ele>
        <time>2015-09-20T08:02:08Z</time>
      </trkpt>
      <trkpt lat="46.00111" lon="6.47504">
        <ele>1945.6</ele>
        <time>2015-09-20T08:02:27Z</time>
      </trkpt>
      <trkpt lat="46.0012" lon="6.47506">
        <ele>1946.6</ele>
        <time>2015-09-20T08:02:44Z</time>
      </trkpt>
      <trkpt lat="46.00121" lon="6.47492">
        <ele>1954.6</ele>
        <time>2015-09-20T08:03:11Z</time>
      </trkpt>
      <trkpt lat="46.00121" lon="6.47479">
        <ele>1956.6</ele>
        <time>2015-09-20T08:03:30Z</time>
      </trkpt>
      <trkpt lat="46.00117" lon="6.47467">
        <ele>1958.6</ele>
        <time>2015-09-20T08:03:40Z</time>
      </trkpt>
      <trkpt lat="46.00115" lon="6.47454">
        <ele>1958.6</ele>
        <time>2015-09-20T08:03:51Z</time>
      </trkpt>
      <trkpt lat="46.00109" lon="6.47445">
        <ele>1963.6</ele>
        <time>2015-09-20T08:04:08Z</time>
      </trkpt>
      <trkpt lat="46.00103" lon="6.47432">
        <ele>1961.6</ele>
        <time>2015-09-20T08:04:17Z</time>
      </trkpt>
      <trkpt lat="46.00102" lon="6.47418">
        <ele>1958.6</ele>
        <time>2015-09-20T08:04:32Z</time>
      </trkpt>
      <trkpt lat="46.00101" lon="6.47405">
        <ele>1962.6</ele>
        <time>2015-09-20T08:04:40Z</time>
      </trkpt>
      <trkpt lat="46.00093" lon="6.47397">
        <ele>1969.6</ele>
        <time>2015-09-20T08:04:53Z</time>
      </trkpt>
      <trkpt lat="46.00088" lon="6.47385">
        <ele>1967.6</ele>
        <time>2015-09-20T08:05:02Z</time>
      </trkpt>
      <trkpt lat="46.00084" lon="6.47371">
        <ele>1968.6</ele>
        <time>2015-09-20T08:05:13Z</time>
      </trkpt>
      <trkpt lat="46.00082" lon="6.47358">
        <ele>1972.6</ele>
        <time>2015-09-20T08:05:25Z</time>
      </trkpt>
      <trkpt lat="46.00078" lon="6.47346">
        <ele>1971.6</ele>
        <time>2015-09-20T08:05:37Z</time>
      </trkpt>
      <trkpt lat="46.00074" lon="6.47333">
        <ele>1973.6</ele>
        <time>2015-09-20T08:05:55Z</time>
      </trkpt>
      <trkpt lat="46.00082" lon="6.47326">
        <ele>1976.6</ele>
        <time>2015-09-20T08:06:31Z</time>
      </trkpt>
      <trkpt lat="46.00086" lon="6.47314">
        <ele>1983.6</ele>
        <time>2015-09-20T08:06:48Z</time>
      </trkpt>
      <trkpt lat="46.00096" lon="6.47308">
        <ele>1987.6</ele>
        <time>2015-09-20T08:07:11Z</time>
      </trkpt>
      <trkpt lat="46.00105" lon="6.47312">
        <ele>1989.6</ele>
        <time>2015-09-20T08:07:26Z</time>
      </trkpt>
      <trkpt lat="46.00103" lon="6.47298">
        <ele>1992.6</ele>
        <time>2015-09-20T08:07:51Z</time>
      </trkpt>
      <trkpt lat="46.0009" lon="6.47291">
        <ele>1996.6</ele>
        <time>2015-09-20T08:08:18Z</time>
      </trkpt>
      <trkpt lat="46.00086" lon="6.47279">
        <ele>1992.6</ele>
        <time>2015-09-20T08:08:48Z</time>
      </trkpt>
      <trkpt lat="46.00092" lon="6.47268">
        <ele>2000.6</ele>
        <time>2015-09-20T08:09:24Z</time>
      </trkpt>
      <trkpt lat="46.00095" lon="6.47255">
        <ele>2003.6</ele>
        <time>2015-09-20T08:10:11Z</time>
      </trkpt>
      <trkpt lat="46.00093" lon="6.47237">
        <ele>2004.6</ele>
        <time>2015-09-20T08:10:28Z</time>
      </trkpt>
      <trkpt lat="46.00093" lon="6.47223">
        <ele>2008.6</ele>
        <time>2015-09-20T08:10:43Z</time>
      </trkpt>
      <trkpt lat="46.00102" lon="6.47219">
        <ele>2012.6</ele>
        <time>2015-09-20T08:11:11Z</time>
      </trkpt>
      <trkpt lat="46.00108" lon="6.47228">
        <ele>2015.6</ele>
        <time>2015-09-20T08:12:32Z</time>
      </trkpt>
      <trkpt lat="46.00114" lon="6.47239">
        <ele>2019.6</ele>
        <time>2015-09-20T08:12:53Z</time>
      </trkpt>
      <trkpt lat="46.00121" lon="6.47247">
        <ele>2022.6</ele>
        <time>2015-09-20T08:13:05Z</time>
      </trkpt>
      <trkpt lat="46.00123" lon="6.47234">
        <ele>2024.6</ele>
        <time>2015-09-20T08:13:19Z</time>
      </trkpt>
      <trkpt lat="46.00122" lon="6.47221">
        <ele>2026.6</ele>
        <time>2015-09-20T08:13:36Z</time>
      </trkpt>
      <trkpt lat="46.00123" lon="6.47207">
        <ele>2032.6</ele>
        <time>2015-09-20T08:13:49Z</time>
      </trkpt>
      <trkpt lat="46.00124" lon="6.47194">
        <ele>2032.6</ele>
        <time>2015-09-20T08:13:58Z</time>
      </trkpt>
      <trkpt lat="46.00121" lon="6.47182">
        <ele>2032.6</ele>
        <time>2015-09-20T08:14:07Z</time>
      </trkpt>
      <trkpt lat="46.00122" lon="6.47168">
        <ele>2033.6</ele>
        <time>2015-09-20T08:14:18Z</time>
      </trkpt>
      <trkpt lat="46.00123" lon="6.47152">
        <ele>2036.6</ele>
        <time>2015-09-20T08:14:31Z</time>
      </trkpt>
      <trkpt lat="46.00126" lon="6.47137">
        <ele>2037.6</ele>
        <time>2015-09-20T08:14:50Z</time>
      </trkpt>
      <trkpt lat="46.00126" lon="6.47119">
        <ele>2044.6</ele>
        <time>2015-09-20T08:15:08Z</time>
      </trkpt>
      <trkpt lat="46.00124" lon="6.47107">
        <ele>2046.6</ele>
        <time>2015-09-20T08:15:20Z</time>
      </trkpt>
      <trkpt lat="46.00122" lon="6.47093">
        <ele>2042.6</ele>
        <time>2015-09-20T08:15:31Z</time>
      </trkpt>
      <trkpt lat="46.0012" lon="6.4708">
        <ele>2048.6</ele>
        <time>2015-09-20T08:15:41Z</time>
      </trkpt>
      <trkpt lat="46.00117" lon="6.47067">
        <ele>2051.6</ele>
        <time>2015-09-20T08:15:56Z</time>
      </trkpt>
      <trkpt lat="46.00114" lon="6.47044">
        <ele>2053.6</ele>
        <time>2015-09-20T08:16:18Z</time>
      </trkpt>
      <trkpt lat="46.00115" lon="6.47031">
        <ele>2055.6</ele>
        <time>2015-09-20T08:16:29Z</time>
      </trkpt>
      <trkpt lat="46.00112" lon="6.47018">
        <ele>2063.6</ele>
        <time>2015-09-20T08:16:38Z</time>
      </trkpt>
      <trkpt lat="46.00113" lon="6.47004">
        <ele>2063.6</ele>
        <time>2015-09-20T08:16:57Z</time>
      </trkpt>
      <trkpt lat="46.00111" lon="6.46986">
        <ele>2062.6</ele>
        <time>2015-09-20T08:17:10Z</time>
      </trkpt>
      <trkpt lat="46.00108" lon="6.46974">
        <ele>2065.6</ele>
        <time>2015-09-20T08:17:19Z</time>
      </trkpt>
      <trkpt lat="46.00105" lon="6.46961">
        <ele>2070.6</ele>
        <time>2015-09-20T08:17:27Z</time>
      </trkpt>
      <trkpt lat="46.00103" lon="6.46947">
        <ele>2069.6</ele>
        <time>2015-09-20T08:17:38Z</time>
      </trkpt>
      <trkpt lat="46.00099" lon="6.46934">
        <ele>2068.6</ele>
        <time>2015-09-20T08:17:47Z</time>
      </trkpt>
      <trkpt lat="46.00095" lon="6.46922">
        <ele>2070.6</ele>
        <time>2015-09-20T08:17:54Z</time>
      </trkpt>
      <trkpt lat="46.00094" lon="6.46909">
        <ele>2069.6</ele>
        <time>2015-09-20T08:18:04Z</time>
      </trkpt>
      <trkpt lat="46.00096" lon="6.46896">
        <ele>2065.6</ele>
        <time>2015-09-20T08:18:16Z</time>
      </trkpt>
      <trkpt lat="46.00102" lon="6.46884">
        <ele>2067.6</ele>
        <time>2015-09-20T08:19:44Z</time>
      </trkpt>
      <trkpt lat="46.00104" lon="6.46872">
        <ele>2061.6</ele>
        <time>2015-09-20T08:19:52Z</time>
      </trkpt>
      <trkpt lat="46.00114" lon="6.46874">
        <ele>1926.6</ele>
        <time>2015-09-20T08:20:28Z</time>
      </trkpt>
      <trkpt lat="46.00121" lon="6.46864">
        <ele>2031.6</ele>
        <time>2015-09-20T08:21:01Z</time>
      </trkpt>
      <trkpt lat="46.00121" lon="6.46851">
        <ele>2032.6</ele>
        <time>2015-09-20T08:21:11Z</time>
      </trkpt>
      <trkpt lat="46.00112" lon="6.46847">
        <ele>2044.6</ele>
        <time>2015-09-20T08:22:27Z</time>
      </trkpt>
      <trkpt lat="46.00109" lon="6.4686">
        <ele>2052.6</ele>
        <time>2015-09-20T08:23:28Z</time>
      </trkpt>
      <trkpt lat="46.001" lon="6.46862">
        <ele>2057.6</ele>
        <time>2015-09-20T08:23:38Z</time>
      </trkpt>
      <trkpt lat="46.00097" lon="6.46875">
        <ele>2060.6</ele>
        <time>2015-09-20T08:23:49Z</time>
      </trkpt>
      <trkpt lat="46.00095" lon="6.46889">
        <ele>2064.6</ele>
        <time>2015-09-20T08:23:59Z</time>
      </trkpt>
      <trkpt lat="46.00086" lon="6.4689">
        <ele>2069.6</ele>
        <time>2015-09-20T08:24:21Z</time>
      </trkpt>
      <trkpt lat="46.00083" lon="6.46877">
        <ele>2071.6</ele>
        <time>2015-09-20T08:24:32Z</time>
      </trkpt>
      <trkpt lat="46.00082" lon="6.46864">
        <ele>2065.6</ele>
        <time>2015-09-20T08:24:47Z</time>
      </trkpt>
      <trkpt lat="46.00076" lon="6.46834">
        <ele>2067.6</ele>
        <time>2015-09-20T08:25:33Z</time>
      </trkpt>
      <trkpt lat="46.00073" lon="6.46821">
        <ele>2069.6</ele>
        <time>2015-09-20T08:25:41Z</time>
      </trkpt>
      <trkpt lat="46.0007" lon="6.46807">
        <ele>2067.6</ele>
        <time>2015-09-20T08:25:47Z</time>
      </trkpt>
      <trkpt lat="46.00067" lon="6.46794">
        <ele>2065.6</ele>
        <time>2015-09-20T08:25:55Z</time>
      </trkpt>
      <trkpt lat="46.00062" lon="6.46782">
        <ele>2061.6</ele>
        <time>2015-09-20T08:26:01Z</time>
      </trkpt>
      <trkpt lat="46.00057" lon="6.46769">
        <ele>2055.6</ele>
        <time>2015-09-20T08:26:09Z</time>
      </trkpt>
      <trkpt lat="46.00056" lon="6.46756">
        <ele>2060.6</ele>
        <time>2015-09-20T08:26:51Z</time>
      </trkpt>
      <trkpt lat="46.00051" lon="6.46744">
        <ele>2058.6</ele>
        <time>2015-09-20T08:27:00Z</time>
      </trkpt>
      <trkpt lat="46.00044" lon="6.46733">
        <ele>2058.6</ele>
        <time>2015-09-20T08:27:07Z</time>
      </trkpt>
      <trkpt lat="46.00039" lon="6.46721">
        <ele>2058.6</ele>
        <time>2015-09-20T08:27:15Z</time>
      </trkpt>
      <trkpt lat="46.00035" lon="6.46708">
        <ele>2060.6</ele>
        <time>2015-09-20T08:27:22Z</time>
      </trkpt>
      <trkpt lat="46.00034" lon="6.46695">
        <ele>2063.6</ele>
        <time>2015-09-20T08:27:32Z</time>
      </trkpt>
      <trkpt lat="46.00038" lon="6.46683">
        <ele>2069.6</ele>
        <time>2015-09-20T08:27:45Z</time>
      </trkpt>
      <trkpt lat="46.00041" lon="6.4667">
        <ele>2079.6</ele>
        <time>2015-09-20T08:27:57Z</time>
      </trkpt>
      <trkpt lat="46.00042" lon="6.46657">
        <ele>2085.6</ele>
        <time>2015-09-20T08:28:19Z</time>
      </trkpt>
      <trkpt lat="46.00049" lon="6.46647">
        <ele>2088.6</ele>
        <time>2015-09-20T08:28:39Z</time>
      </trkpt>
      <trkpt lat="46.00054" lon="6.46635">
        <ele>2090.6</ele>
        <time>2015-09-20T08:28:53Z</time>
      </trkpt>
      <trkpt lat="46.00055" lon="6.46622">
        <ele>2092.6</ele>
        <time>2015-09-20T08:29:08Z</time>
      </trkpt>
      <trkpt lat="46.0006" lon="6.46611">
        <ele>2096.6</ele>
        <time>2015-09-20T08:29:29Z</time>
      </trkpt>
      <trkpt lat="46.00065" lon="6.46599">
        <ele>2097.6</ele>
        <time>2015-09-20T08:29:41Z</time>
      </trkpt>
      <trkpt lat="46.00056" lon="6.46593">
        <ele>2100.6</ele>
        <time>2015-09-20T08:30:12Z</time>
      </trkpt>
      <trkpt lat="46.00047" lon="6.46587">
        <ele>2100.6</ele>
        <time>2015-09-20T08:30:32Z</time>
      </trkpt>
      <trkpt lat="46.00039" lon="6.46579">
        <ele>2097.6</ele>
        <time>2015-09-20T08:30:45Z</time>
      </trkpt>
      <trkpt lat="46.0003" lon="6.46575">
        <ele>2097.6</ele>
        <time>2015-09-20T08:30:58Z</time>
      </trkpt>
      <trkpt lat="46.00021" lon="6.4657">
        <ele>2101.6</ele>
        <time>2015-09-20T08:31:14Z</time>
      </trkpt>
      <trkpt lat="46.00012" lon="6.46566">
        <ele>2102.6</ele>
        <time>2015-09-20T08:31:30Z</time>
      </trkpt>
      <trkpt lat="46.00004" lon="6.46562">
        <ele>2114.6</ele>
        <time>2015-09-20T08:32:02Z</time>
      </trkpt>
      <trkpt lat="45.99996" lon="6.46556">
        <ele>2124.6</ele>
        <time>2015-09-20T08:32:59Z</time>
      </trkpt>
      <trkpt lat="45.99988" lon="6.46563">
        <ele>2131.6</ele>
        <time>2015-09-20T08:33:14Z</time>
      </trkpt>
      <trkpt lat="45.99983" lon="6.46575">
        <ele>2137.6</ele>
        <time>2015-09-20T08:33:29Z</time>
      </trkpt>
      <trkpt lat="45.99976" lon="6.46587">
        <ele>2137.6</ele>
        <time>2015-09-20T08:33:42Z</time>
      </trkpt>
      <trkpt lat="45.99968" lon="6.46596">
        <ele>2133.6</ele>
        <time>2015-09-20T08:33:54Z</time>
      </trkpt>
      <trkpt lat="45.99965" lon="6.46582">
        <ele>2137.6</ele>
        <time>2015-09-20T08:34:45Z</time>
      </trkpt>
      <trkpt lat="45.99962" lon="6.46569">
        <ele>2139.6</ele>
        <time>2015-09-20T08:35:00Z</time>
      </trkpt>
      <trkpt lat="45.99958" lon="6.46557">
        <ele>2145.6</ele>
        <time>2015-09-20T08:35:15Z</time>
      </trkpt>
      <trkpt lat="45.99954" lon="6.46545">
        <ele>2148.6</ele>
        <time>2015-09-20T08:35:35Z</time>
      </trkpt>
      <trkpt lat="45.99958" lon="6.46534">
        <ele>2152.6</ele>
        <time>2015-09-20T08:36:01Z</time>
      </trkpt>
      <trkpt lat="45.9996" lon="6.4652">
        <ele>2153.6</ele>
        <time>2015-09-20T08:36:19Z</time>
      </trkpt>
      <trkpt lat="45.99963" lon="6.46507">
        <ele>2159.6</ele>
        <time>2015-09-20T08:36:35Z</time>
      </trkpt>
      <trkpt lat="45.99968" lon="6.46495">
        <ele>2169.6</ele>
        <time>2015-09-20T08:36:54Z</time>
      </trkpt>
      <trkpt lat="45.99967" lon="6.46482">
        <ele>2173.6</ele>
        <time>2015-09-20T08:37:17Z</time>
      </trkpt>
      <trkpt lat="45.99958" lon="6.46476">
        <ele>2174.6</ele>
        <time>2015-09-20T08:37:48Z</time>
      </trkpt>
      <trkpt lat="45.9995" lon="6.46472">
        <ele>2181.6</ele>
        <time>2015-09-20T08:38:08Z</time>
      </trkpt>
      <trkpt lat="45.99943" lon="6.46463">
        <ele>2183.6</ele>
        <time>2015-09-20T08:38:32Z</time>
      </trkpt>
      <trkpt lat="45.99934" lon="6.46464">
        <ele>2182.6</ele>
        <time>2015-09-20T08:38:51Z</time>
      </trkpt>
      <trkpt lat="45.99933" lon="6.4645">
        <ele>2181.6</ele>
        <time>2015-09-20T08:39:11Z</time>
      </trkpt>
      <trkpt lat="45.99933" lon="6.46434">
        <ele>2181.6</ele>
        <time>2015-09-20T08:39:26Z</time>
      </trkpt>
      <trkpt lat="45.99933" lon="6.4642">
        <ele>2185.6</ele>
        <time>2015-09-20T08:46:36Z</time>
      </trkpt>
      <trkpt lat="45.99933" lon="6.46407">
        <ele>2196.6</ele>
        <time>2015-09-20T08:46:59Z</time>
      </trkpt>
      <trkpt lat="45.99936" lon="6.46392">
        <ele>2207.6</ele>
        <time>2015-09-20T08:47:43Z</time>
      </trkpt>
      <trkpt lat="45.9993" lon="6.46383">
        <ele>2205.6</ele>
        <time>2015-09-20T08:48:18Z</time>
      </trkpt>
      <trkpt lat="45.99937" lon="6.46372">
        <ele>2213.6</ele>
        <time>2015-09-20T08:48:49Z</time>
      </trkpt>
      <trkpt lat="45.99934" lon="6.4636">
        <ele>2229.6</ele>
        <time>2015-09-20T08:49:48Z</time>
      </trkpt>
      <trkpt lat="45.9994" lon="6.46348">
        <ele>2239.6</ele>
        <time>2015-09-20T08:50:17Z</time>
      </trkpt>
      <trkpt lat="45.99944" lon="6.46336">
        <ele>2246.6</ele>
        <time>2015-09-20T08:50:55Z</time>
      </trkpt>
      <trkpt lat="45.99948" lon="6.46324">
        <ele>2251.6</ele>
        <time>2015-09-20T08:51:30Z</time>
      </trkpt>
      <trkpt lat="45.99958" lon="6.46317">
        <ele>2258.6</ele>
        <time>2015-09-20T08:52:07Z</time>
      </trkpt>
      <trkpt lat="45.99952" lon="6.46307">
        <ele>2265.6</ele>
        <time>2015-09-20T08:54:24Z</time>
      </trkpt>
      <trkpt lat="45.99945" lon="6.46298">
        <ele>2272.6</ele>
        <time>2015-09-20T08:57:55Z</time>
      </trkpt>
      <trkpt lat="45.99939" lon="6.46287">
        <ele>2286.6</ele>
        <time>2015-09-20T08:59:29Z</time>
      </trkpt>
      <trkpt lat="45.99932" lon="6.46296">
        <ele>2295.6</ele>
        <time>2015-09-20T09:00:06Z</time>
      </trkpt>
      <trkpt lat="45.99921" lon="6.46307">
        <ele>2297.6</ele>
        <time>2015-09-20T09:01:01Z</time>
      </trkpt>
      <trkpt lat="45.99913" lon="6.46301">
        <ele>2313.6</ele>
        <time>2015-09-20T09:02:48Z</time>
      </trkpt>
      <trkpt lat="45.99906" lon="6.46293">
        <ele>2319.6</ele>
        <time>2015-09-20T09:03:30Z</time>
      </trkpt>
      <trkpt lat="45.999" lon="6.46283">
        <ele>2324.6</ele>
        <time>2015-09-20T09:04:09Z</time>
      </trkpt>
      <trkpt lat="45.99899" lon="6.4627">
        <ele>2330.6</ele>
        <time>2015-09-20T09:06:43Z</time>
      </trkpt>
      <trkpt lat="45.99893" lon="6.46257">
        <ele>2330.6</ele>
        <time>2015-09-20T09:06:58Z</time>
      </trkpt>
      <trkpt lat="45.99891" lon="6.46244">
        <ele>2338.6</ele>
        <time>2015-09-20T09:07:52Z</time>
      </trkpt>
      <trkpt lat="45.99895" lon="6.46227">
        <ele>2335.6</ele>
        <time>2015-09-20T09:08:20Z</time>
      </trkpt>
      <trkpt lat="45.99897" lon="6.46214">
        <ele>2336.6</ele>
        <time>2015-09-20T09:08:47Z</time>
      </trkpt>
      <trkpt lat="45.99899" lon="6.462">
        <ele>2349.6</ele>
        <time>2015-09-20T09:09:16Z</time>
      </trkpt>
      <trkpt lat="45.99899" lon="6.46186">
        <ele>2349.6</ele>
        <time>2015-09-20T09:09:36Z</time>
      </trkpt>
      <trkpt lat="45.99893" lon="6.46169">
        <ele>2360.6</ele>
        <time>2015-09-20T09:11:15Z</time>
      </trkpt>
      <trkpt lat="45.99892" lon="6.46155">
        <ele>2363.6</ele>
        <time>2015-09-20T09:11:34Z</time>
      </trkpt>
      <trkpt lat="45.99896" lon="6.46143">
        <ele>2365.6</ele>
        <time>2015-09-20T09:12:01Z</time>
      </trkpt>
      <trkpt lat="45.99903" lon="6.46133">
        <ele>2375.6</ele>
        <time>2015-09-20T09:12:46Z</time>
      </trkpt>
      <trkpt lat="45.99902" lon="6.4612">
        <ele>2380.6</ele>
        <time>2015-09-20T09:13:11Z</time>
      </trkpt>
      <trkpt lat="45.99905" lon="6.46108">
        <ele>2389.6</ele>
        <time>2015-09-20T09:14:00Z</time>
      </trkpt>
      <trkpt lat="45.99905" lon="6.46094">
        <ele>2396.6</ele>
        <time>2015-09-20T09:14:41Z</time>
      </trkpt>
      <trkpt lat="45.999" lon="6.46083">
        <ele>2403.6</ele>
        <time>2015-09-20T09:15:24Z</time>
      </trkpt>
      <trkpt lat="45.99901" lon="6.4607">
        <ele>2414.6</ele>
        <time>2015-09-20T09:16:11Z</time>
      </trkpt>
      <trkpt lat="45.99893" lon="6.46062">
        <ele>2420.6</ele>
        <time>2015-09-20T09:16:34Z</time>
      </trkpt>
      <trkpt lat="45.99887" lon="6.46053">
        <ele>2422.6</ele>
        <time>2015-09-20T09:17:01Z</time>
      </trkpt>
      <trkpt lat="45.99891" lon="6.4604">
        <ele>2425.6</ele>
        <time>2015-09-20T09:17:22Z</time>
      </trkpt>
      <trkpt lat="45.99888" lon="6.46027">
        <ele>2431.6</ele>
        <time>2015-09-20T09:17:39Z</time>
      </trkpt>
      <trkpt lat="45.99888" lon="6.46013">
        <ele>2434.6</ele>
        <time>2015-09-20T09:17:59Z</time>
      </trkpt>
      <trkpt lat="45.99891" lon="6.46001">
        <ele>2439.6</ele>
        <time>2015-09-20T09:18:34Z</time>
      </trkpt>
      <trkpt lat="45.99891" lon="6.46019">
        <ele>2439.6</ele>
        <time>2015-09-20T09:51:27Z</time>
      </trkpt>
      <trkpt lat="45.99893" lon="6.46034">
        <ele>2434.6</ele>
        <time>2015-09-20T09:51:54Z</time>
      </trkpt>
      <trkpt lat="45.99889" lon="6.46047">
        <ele>2430.6</ele>
        <time>2015-09-20T09:52:35Z</time>
      </trkpt>
      <trkpt lat="45.9989" lon="6.4606">
        <ele>2426.6</ele>
        <time>2015-09-20T09:52:51Z</time>
      </trkpt>
      <trkpt lat="45.99899" lon="6.46064">
        <ele>2423.6</ele>
        <time>2015-09-20T09:53:13Z</time>
      </trkpt>
      <trkpt lat="45.99904" lon="6.46075">
        <ele>2419.6</ele>
        <time>2015-09-20T09:53:38Z</time>
      </trkpt>
      <trkpt lat="45.99901" lon="6.46087">
        <ele>2412.6</ele>
        <time>2015-09-20T09:54:35Z</time>
      </trkpt>
      <trkpt lat="45.99907" lon="6.46103">
        <ele>2403.6</ele>
        <time>2015-09-20T09:55:16Z</time>
      </trkpt>
      <trkpt lat="45.99901" lon="6.46113">
        <ele>2395.6</ele>
        <time>2015-09-20T09:56:10Z</time>
      </trkpt>
      <trkpt lat="45.99901" lon="6.46126">
        <ele>2391.6</ele>
        <time>2015-09-20T09:57:22Z</time>
      </trkpt>
      <trkpt lat="45.99901" lon="6.4614">
        <ele>2386.6</ele>
        <time>2015-09-20T09:57:42Z</time>
      </trkpt>
      <trkpt lat="45.99895" lon="6.46149">
        <ele>2379.6</ele>
        <time>2015-09-20T09:57:59Z</time>
      </trkpt>
      <trkpt lat="45.99891" lon="6.46161">
        <ele>2373.6</ele>
        <time>2015-09-20T09:58:19Z</time>
      </trkpt>
      <trkpt lat="45.99891" lon="6.46175">
        <ele>2367.6</ele>
        <time>2015-09-20T09:58:34Z</time>
      </trkpt>
      <trkpt lat="45.99895" lon="6.46187">
        <ele>2362.6</ele>
        <time>2015-09-20T09:58:47Z</time>
      </trkpt>
      <trkpt lat="45.99896" lon="6.46201">
        <ele>2358.6</ele>
        <time>2015-09-20T09:59:00Z</time>
      </trkpt>
      <trkpt lat="45.99895" lon="6.46214">
        <ele>2354.6</ele>
        <time>2015-09-20T09:59:14Z</time>
      </trkpt>
      <trkpt lat="45.99886" lon="6.46213">
        <ele>2347.6</ele>
        <time>2015-09-20T09:59:57Z</time>
      </trkpt>
      <trkpt lat="45.99878" lon="6.46205">
        <ele>2344.6</ele>
        <time>2015-09-20T10:00:13Z</time>
      </trkpt>
      <trkpt lat="45.9987" lon="6.46201">
        <ele>2340.6</ele>
        <time>2015-09-20T10:00:37Z</time>
      </trkpt>
      <trkpt lat="45.99862" lon="6.46208">
        <ele>2333.6</ele>
        <time>2015-09-20T10:01:07Z</time>
      </trkpt>
      <trkpt lat="45.99862" lon="6.46221">
        <ele>2329.6</ele>
        <time>2015-09-20T10:01:22Z</time>
      </trkpt>
      <trkpt lat="45.99853" lon="6.4622">
        <ele>2325.6</ele>
        <time>2015-09-20T10:02:33Z</time>
      </trkpt>
      <trkpt lat="45.99844" lon="6.46223">
        <ele>2321.6</ele>
        <time>2015-09-20T10:02:47Z</time>
      </trkpt>
      <trkpt lat="45.99834" lon="6.46228">
        <ele>2315.6</ele>
        <time>2015-09-20T10:03:00Z</time>
      </trkpt>
      <trkpt lat="45.99825" lon="6.46226">
        <ele>2309.6</ele>
        <time>2015-09-20T10:03:13Z</time>
      </trkpt>
      <trkpt lat="45.99818" lon="6.46235">
        <ele>2302.6</ele>
        <time>2015-09-20T10:03:26Z</time>
      </trkpt>
      <trkpt lat="45.99809" lon="6.46242">
        <ele>2294.6</ele>
        <time>2015-09-20T10:03:42Z</time>
      </trkpt>
      <trkpt lat="45.99799" lon="6.46241">
        <ele>2286.6</ele>
        <time>2015-09-20T10:04:28Z</time>
      </trkpt>
      <trkpt lat="45.99792" lon="6.46248">
        <ele>2277.6</ele>
        <time>2015-09-20T10:05:11Z</time>
      </trkpt>
      <trkpt lat="45.99784" lon="6.46255">
        <ele>2269.6</ele>
        <time>2015-09-20T10:05:37Z</time>
      </trkpt>
      <trkpt lat="45.99774" lon="6.46258">
        <ele>2262.6</ele>
        <time>2015-09-20T10:06:03Z</time>
      </trkpt>
      <trkpt lat="45.99766" lon="6.46265">
        <ele>2255.6</ele>
        <time>2015-09-20T10:06:42Z</time>
      </trkpt>
      <trkpt lat="45.99758" lon="6.46259">
        <ele>2247.6</ele>
        <time>2015-09-20T10:07:13Z</time>
      </trkpt>
      <trkpt lat="45.99753" lon="6.4627">
        <ele>2240.6</ele>
        <time>2015-09-20T10:07:49Z</time>
      </trkpt>
      <trkpt lat="45.99747" lon="6.4628">
        <ele>2231.6</ele>
        <time>2015-09-20T10:08:12Z</time>
      </trkpt>
      <trkpt lat="45.99742" lon="6.46296">
        <ele>2222.6</ele>
        <time>2015-09-20T10:09:01Z</time>
      </trkpt>
      <trkpt lat="45.99733" lon="6.463">
        <ele>2217.6</ele>
        <time>2015-09-20T10:09:27Z</time>
      </trkpt>
      <trkpt lat="45.99725" lon="6.46306">
        <ele>2210.6</ele>
        <time>2015-09-20T10:10:53Z</time>
      </trkpt>
      <trkpt lat="45.99718" lon="6.46316">
        <ele>2199.6</ele>
        <time>2015-09-20T10:11:27Z</time>
      </trkpt>
      <trkpt lat="45.99718" lon="6.46329">
        <ele>2194.6</ele>
        <time>2015-09-20T10:11:47Z</time>
      </trkpt>
      <trkpt lat="45.99709" lon="6.46331">
        <ele>2187.6</ele>
        <time>2015-09-20T10:12:11Z</time>
      </trkpt>
      <trkpt lat="45.997" lon="6.46337">
        <ele>2183.6</ele>
        <time>2015-09-20T10:12:33Z</time>
      </trkpt>
      <trkpt lat="45.99692" lon="6.46345">
        <ele>2177.6</ele>
        <time>2015-09-20T10:13:05Z</time>
      </trkpt>
      <trkpt lat="45.99684" lon="6.4634">
        <ele>2173.6</ele>
        <time>2015-09-20T10:13:22Z</time>
      </trkpt>
      <trkpt lat="45.99681" lon="6.46353">
        <ele>2169.6</ele>
        <time>2015-09-20T10:13:37Z</time>
      </trkpt>
      <trkpt lat="45.99673" lon="6.46361">
        <ele>2164.6</ele>
        <time>2015-09-20T10:13:57Z</time>
      </trkpt>
      <trkpt lat="45.9967" lon="6.46373">
        <ele>2161.6</ele>
        <time>2015-09-20T10:14:15Z</time>
      </trkpt>
      <trkpt lat="45.99668" lon="6.46386">
        <ele>2156.6</ele>
        <time>2015-09-20T10:14:37Z</time>
      </trkpt>
      <trkpt lat="45.99674" lon="6.46397">
        <ele>2148.6</ele>
        <time>2015-09-20T10:15:16Z</time>
      </trkpt>
      <trkpt lat="45.99679" lon="6.46408">
        <ele>2145.6</ele>
        <time>2015-09-20T10:15:40Z</time>
      </trkpt>
      <trkpt lat="45.99676" lon="6.46421">
        <ele>2138.6</ele>
        <time>2015-09-20T10:16:20Z</time>
      </trkpt>
      <trkpt lat="45.99668" lon="6.46426">
        <ele>2134.6</ele>
        <time>2015-09-20T10:16:36Z</time>
      </trkpt>
      <trkpt lat="45.9966" lon="6.46432">
        <ele>2127.6</ele>
        <time>2015-09-20T10:17:07Z</time>
      </trkpt>
      <trkpt lat="45.99654" lon="6.46442">
        <ele>2122.6</ele>
        <time>2015-09-20T10:17:33Z</time>
      </trkpt>
      <trkpt lat="45.9965" lon="6.46453">
        <ele>2107.6</ele>
        <time>2015-09-20T10:18:40Z</time>
      </trkpt>
      <trkpt lat="45.99648" lon="6.46467">
        <ele>2106.6</ele>
        <time>2015-09-20T10:19:32Z</time>
      </trkpt>
      <trkpt lat="45.99639" lon="6.46466">
        <ele>2098.6</ele>
        <time>2015-09-20T10:20:17Z</time>
      </trkpt>
      <trkpt lat="45.9963" lon="6.46475">
        <ele>2093.6</ele>
        <time>2015-09-20T10:20:47Z</time>
      </trkpt>
      <trkpt lat="45.99627" lon="6.46487">
        <ele>2089.6</ele>
        <time>2015-09-20T10:21:26Z</time>
      </trkpt>
      <trkpt lat="45.99619" lon="6.46493">
        <ele>2084.6</ele>
        <time>2015-09-20T10:21:46Z</time>
      </trkpt>
      <trkpt lat="45.99611" lon="6.46501">
        <ele>2074.6</ele>
        <time>2015-09-20T10:22:17Z</time>
      </trkpt>
      <trkpt lat="45.99605" lon="6.4651">
        <ele>2067.6</ele>
        <time>2015-09-20T10:22:40Z</time>
      </trkpt>
      <trkpt lat="45.99599" lon="6.4652">
        <ele>2060.6</ele>
        <time>2015-09-20T10:23:08Z</time>
      </trkpt>
      <trkpt lat="45.99594" lon="6.46531">
        <ele>2056.6</ele>
        <time>2015-09-20T10:23:35Z</time>
      </trkpt>
      <trkpt lat="45.99588" lon="6.46542">
        <ele>2050.6</ele>
        <time>2015-09-20T10:24:03Z</time>
      </trkpt>
      <trkpt lat="45.99591" lon="6.46555">
        <ele>2041.6</ele>
        <time>2015-09-20T10:24:25Z</time>
      </trkpt>
      <trkpt lat="45.99587" lon="6.46568">
        <ele>2032.6</ele>
        <time>2015-09-20T10:25:02Z</time>
      </trkpt>
      <trkpt lat="45.9958" lon="6.46578">
        <ele>2027.6</ele>
        <time>2015-09-20T10:25:29Z</time>
      </trkpt>
      <trkpt lat="45.99575" lon="6.4659">
        <ele>2022.6</ele>
        <time>2015-09-20T10:25:52Z</time>
      </trkpt>
      <trkpt lat="45.99571" lon="6.46603">
        <ele>2017.6</ele>
        <time>2015-09-20T10:26:29Z</time>
      </trkpt>
      <trkpt lat="45.99566" lon="6.46614">
        <ele>2009.6</ele>
        <time>2015-09-20T10:27:01Z</time>
      </trkpt>
      <trkpt lat="45.99557" lon="6.46624">
        <ele>2000.6</ele>
        <time>2015-09-20T10:27:33Z</time>
      </trkpt>
      <trkpt lat="45.99554" lon="6.46636">
        <ele>1987.6</ele>
        <time>2015-09-20T10:28:38Z</time>
      </trkpt>
      <trkpt lat="45.99547" lon="6.46645">
        <ele>1977.6</ele>
        <time>2015-09-20T10:29:42Z</time>
      </trkpt>
      <trkpt lat="45.99543" lon="6.46657">
        <ele>1971.6</ele>
        <time>2015-09-20T10:30:48Z</time>
      </trkpt>
      <trkpt lat="45.99554" lon="6.46665">
        <ele>1956.6</ele>
        <time>2015-09-20T10:32:15Z</time>
      </trkpt>
      <trkpt lat="45.99562" lon="6.46672">
        <ele>1950.6</ele>
        <time>2015-09-20T10:32:43Z</time>
      </trkpt>
      <trkpt lat="45.99572" lon="6.46683">
        <ele>1944.6</ele>
        <time>2015-09-20T10:33:17Z</time>
      </trkpt>
      <trkpt lat="45.99568" lon="6.46695">
        <ele>1942.6</ele>
        <time>2015-09-20T10:36:24Z</time>
      </trkpt>
      <trkpt lat="45.99563" lon="6.46706">
        <ele>1939.6</ele>
        <time>2015-09-20T10:36:44Z</time>
      </trkpt>
      <trkpt lat="45.99561" lon="6.46723">
        <ele>1932.6</ele>
        <time>2015-09-20T10:37:19Z</time>
      </trkpt>
      <trkpt lat="45.9956" lon="6.46737">
        <ele>1926.6</ele>
        <time>2015-09-20T10:37:40Z</time>
      </trkpt>
      <trkpt lat="45.99562" lon="6.46749">
        <ele>1920.6</ele>
        <time>2015-09-20T10:37:56Z</time>
      </trkpt>
      <trkpt lat="45.99563" lon="6.46763">
        <ele>1913.6</ele>
        <time>2015-09-20T10:38:14Z</time>
      </trkpt>
      <trkpt lat="45.99565" lon="6.46776">
        <ele>1908.6</ele>
        <time>2015-09-20T10:38:27Z</time>
      </trkpt>
      <trkpt lat="45.99565" lon="6.46789">
        <ele>1902.6</ele>
        <time>2015-09-20T10:38:41Z</time>
      </trkpt>
      <trkpt lat="45.99564" lon="6.46802">
        <ele>1899.6</ele>
        <time>2015-09-20T10:38:56Z</time>
      </trkpt>
      <trkpt lat="45.99563" lon="6.46816">
        <ele>1896.6</ele>
        <time>2015-09-20T10:39:15Z</time>
      </trkpt>
      <trkpt lat="45.9956" lon="6.46835">
        <ele>1889.6</ele>
        <time>2015-09-20T10:39:44Z</time>
      </trkpt>
      <trkpt lat="45.99557" lon="6.46847">
        <ele>1884.6</ele>
        <time>2015-09-20T10:40:04Z</time>
      </trkpt>
      <trkpt lat="45.99554" lon="6.4686">
        <ele>1882.6</ele>
        <time>2015-09-20T10:40:20Z</time>
      </trkpt>
      <trkpt lat="45.99546" lon="6.46854">
        <ele>1880.6</ele>
        <time>2015-09-20T10:40:35Z</time>
      </trkpt>
      <trkpt lat="45.99539" lon="6.46845">
        <ele>1876.6</ele>
        <time>2015-09-20T10:40:50Z</time>
      </trkpt>
      <trkpt lat="45.99531" lon="6.46838">
        <ele>1873.6</ele>
        <time>2015-09-20T10:41:02Z</time>
      </trkpt>
      <trkpt lat="45.99523" lon="6.46832">
        <ele>1871.6</ele>
        <time>2015-09-20T10:41:15Z</time>
      </trkpt>
      <trkpt lat="45.99516" lon="6.46842">
        <ele>1865.6</ele>
        <time>2015-09-20T10:41:41Z</time>
      </trkpt>
      <trkpt lat="45.99516" lon="6.46856">
        <ele>1859.6</ele>
        <time>2015-09-20T10:42:02Z</time>
      </trkpt>
      <trkpt lat="45.99509" lon="6.46864">
        <ele>1853.6</ele>
        <time>2015-09-20T10:42:26Z</time>
      </trkpt>
      <trkpt lat="45.99506" lon="6.46881">
        <ele>1847.6</ele>
        <time>2015-09-20T10:42:47Z</time>
      </trkpt>
      <trkpt lat="45.99506" lon="6.46894">
        <ele>1842.6</ele>
        <time>2015-09-20T10:43:03Z</time>
      </trkpt>
      <trkpt lat="45.99507" lon="6.46907">
        <ele>1838.6</ele>
        <time>2015-09-20T10:43:17Z</time>
      </trkpt>
      <trkpt lat="45.99507" lon="6.4692">
        <ele>1833.6</ele>
        <time>2015-09-20T10:43:28Z</time>
      </trkpt>
      <trkpt lat="45.9951" lon="6.46932">
        <ele>1829.6</ele>
        <time>2015-09-20T10:43:39Z</time>
      </trkpt>
      <trkpt lat="45.99512" lon="6.46945">
        <ele>1823.6</ele>
        <time>2015-09-20T10:43:54Z</time>
      </trkpt>
      <trkpt lat="45.99503" lon="6.46949">
        <ele>1817.6</ele>
        <time>2015-09-20T10:44:17Z</time>
      </trkpt>
      <trkpt lat="45.99494" lon="6.46951">
        <ele>1814.6</ele>
        <time>2015-09-20T10:44:39Z</time>
      </trkpt>
      <trkpt lat="45.99485" lon="6.46948">
        <ele>1812.6</ele>
        <time>2015-09-20T10:44:51Z</time>
      </trkpt>
      <trkpt lat="45.99477" lon="6.46942">
        <ele>1809.6</ele>
        <time>2015-09-20T10:45:07Z</time>
      </trkpt>
      <trkpt lat="45.99469" lon="6.46935">
        <ele>1807.6</ele>
        <time>2015-09-20T10:45:27Z</time>
      </trkpt>
      <trkpt lat="45.9946" lon="6.46935">
        <ele>1803.6</ele>
        <time>2015-09-20T10:46:01Z</time>
      </trkpt>
      <trkpt lat="45.99451" lon="6.46929">
        <ele>1800.6</ele>
        <time>2015-09-20T10:46:12Z</time>
      </trkpt>
      <trkpt lat="45.99445" lon="6.46919">
        <ele>1797.6</ele>
        <time>2015-09-20T10:46:24Z</time>
      </trkpt>
      <trkpt lat="45.99438" lon="6.46909">
        <ele>1796.6</ele>
        <time>2015-09-20T10:46:34Z</time>
      </trkpt>
      <trkpt lat="45.99431" lon="6.469">
        <ele>1795.6</ele>
        <time>2015-09-20T10:46:45Z</time>
      </trkpt>
      <trkpt lat="45.99429" lon="6.46913">
        <ele>1792.6</ele>
        <time>2015-09-20T10:46:59Z</time>
      </trkpt>
      <trkpt lat="45.99428" lon="6.46926">
        <ele>1790.6</ele>
        <time>2015-09-20T10:47:11Z</time>
      </trkpt>
      <trkpt lat="45.99422" lon="6.46935">
        <ele>1786.6</ele>
        <time>2015-09-20T10:47:27Z</time>
      </trkpt>
      <trkpt lat="45.99412" lon="6.46931">
        <ele>1784.6</ele>
        <time>2015-09-20T10:47:40Z</time>
      </trkpt>
      <trkpt lat="45.99402" lon="6.46922">
        <ele>1778.6</ele>
        <time>2015-09-20T10:47:55Z</time>
      </trkpt>
      <trkpt lat="45.99397" lon="6.46911">
        <ele>1774.6</ele>
        <time>2015-09-20T10:48:05Z</time>
      </trkpt>
      <trkpt lat="45.9939" lon="6.4692">
        <ele>1770.6</ele>
        <time>2015-09-20T10:48:26Z</time>
      </trkpt>
      <trkpt lat="45.99382" lon="6.46926">
        <ele>1765.6</ele>
        <time>2015-09-20T10:48:44Z</time>
      </trkpt>
      <trkpt lat="45.99381" lon="6.46939">
        <ele>1761.6</ele>
        <time>2015-09-20T10:48:58Z</time>
      </trkpt>
      <trkpt lat="45.99385" lon="6.46952">
        <ele>1759.6</ele>
        <time>2015-09-20T10:49:06Z</time>
      </trkpt>
      <trkpt lat="45.9939" lon="6.46963">
        <ele>1759.6</ele>
        <time>2015-09-20T10:49:14Z</time>
      </trkpt>
      <trkpt lat="45.99395" lon="6.46975">
        <ele>1758.6</ele>
        <time>2015-09-20T10:49:23Z</time>
      </trkpt>
      <trkpt lat="45.994" lon="6.46989">
        <ele>1755.6</ele>
        <time>2015-09-20T10:49:34Z</time>
      </trkpt>
      <trkpt lat="45.99391" lon="6.46993">
        <ele>1749.6</ele>
        <time>2015-09-20T10:49:50Z</time>
      </trkpt>
      <trkpt lat="45.99382" lon="6.4699">
        <ele>1748.6</ele>
        <time>2015-09-20T10:49:59Z</time>
      </trkpt>
      <trkpt lat="45.99372" lon="6.4698">
        <ele>1745.6</ele>
        <time>2015-09-20T10:50:10Z</time>
      </trkpt>
      <trkpt lat="45.99363" lon="6.46975">
        <ele>1743.6</ele>
        <time>2015-09-20T10:50:20Z</time>
      </trkpt>
      <trkpt lat="45.99364" lon="6.46988">
        <ele>1737.6</ele>
        <time>2015-09-20T10:50:35Z</time>
      </trkpt>
      <trkpt lat="45.99366" lon="6.47002">
        <ele>1733.6</ele>
        <time>2015-09-20T10:50:47Z</time>
      </trkpt>
      <trkpt lat="45.99357" lon="6.46998">
        <ele>1734.6</ele>
        <time>2015-09-20T10:50:58Z</time>
      </trkpt>
      <trkpt lat="45.99342" lon="6.46989">
        <ele>1728.6</ele>
        <time>2015-09-20T10:51:15Z</time>
      </trkpt>
      <trkpt lat="45.99333" lon="6.46982">
        <ele>1725.6</ele>
        <time>2015-09-20T10:51:28Z</time>
      </trkpt>
      <trkpt lat="45.99324" lon="6.46977">
        <ele>1722.6</ele>
        <time>2015-09-20T10:51:41Z</time>
      </trkpt>
      <trkpt lat="45.99319" lon="6.46966">
        <ele>1719.6</ele>
        <time>2015-09-20T10:51:53Z</time>
      </trkpt>
      <trkpt lat="45.99313" lon="6.46954">
        <ele>1714.6</ele>
        <time>2015-09-20T10:52:04Z</time>
      </trkpt>
      <trkpt lat="45.99304" lon="6.46942">
        <ele>1711.6</ele>
        <time>2015-09-20T10:52:15Z</time>
      </trkpt>
      <trkpt lat="45.99297" lon="6.46934">
        <ele>1708.6</ele>
        <time>2015-09-20T10:52:26Z</time>
      </trkpt>
      <trkpt lat="45.99289" lon="6.46927">
        <ele>1707.6</ele>
        <time>2015-09-20T10:52:34Z</time>
      </trkpt>
      <trkpt lat="45.9928" lon="6.46923">
        <ele>1706.6</ele>
        <time>2015-09-20T10:52:41Z</time>
      </trkpt>
      <trkpt lat="45.9927" lon="6.46923">
        <ele>1704.6</ele>
        <time>2015-09-20T10:52:50Z</time>
      </trkpt>
      <trkpt lat="45.99258" lon="6.46926">
        <ele>1702.6</ele>
        <time>2015-09-20T10:52:59Z</time>
      </trkpt>
      <trkpt lat="45.99249" lon="6.46922">
        <ele>1701.6</ele>
        <time>2015-09-20T10:53:07Z</time>
      </trkpt>
      <trkpt lat="45.99241" lon="6.46914">
        <ele>1700.6</ele>
        <time>2015-09-20T10:53:16Z</time>
      </trkpt>
      <trkpt lat="45.99231" lon="6.46911">
        <ele>1699.6</ele>
        <time>2015-09-20T10:53:24Z</time>
      </trkpt>
      <trkpt lat="45.99221" lon="6.46915">
        <ele>1697.6</ele>
        <time>2015-09-20T10:53:35Z</time>
      </trkpt>
      <trkpt lat="45.99212" lon="6.4692">
        <ele>1694.6</ele>
        <time>2015-09-20T10:53:46Z</time>
      </trkpt>
      <trkpt lat="45.99207" lon="6.46931">
        <ele>1691.6</ele>
        <time>2015-09-20T10:53:58Z</time>
      </trkpt>
      <trkpt lat="45.99205" lon="6.46949">
        <ele>1689.6</ele>
        <time>2015-09-20T10:54:11Z</time>
      </trkpt>
      <trkpt lat="45.99207" lon="6.46964">
        <ele>1687.6</ele>
        <time>2015-09-20T10:54:20Z</time>
      </trkpt>
      <trkpt lat="45.99211" lon="6.46981">
        <ele>1685.6</ele>
        <time>2015-09-20T10:54:30Z</time>
      </trkpt>
      <trkpt lat="45.99212" lon="6.46995">
        <ele>1684.6</ele>
        <time>2015-09-20T10:54:39Z</time>
      </trkpt>
      <trkpt lat="45.99212" lon="6.47008">
        <ele>1682.6</ele>
        <time>2015-09-20T10:54:47Z</time>
      </trkpt>
      <trkpt lat="45.99214" lon="6.47021">
        <ele>1680.6</ele>
        <time>2015-09-20T10:54:57Z</time>
      </trkpt>
      <trkpt lat="45.99211" lon="6.47034">
        <ele>1677.6</ele>
        <time>2015-09-20T10:55:07Z</time>
      </trkpt>
      <trkpt lat="45.9921" lon="6.47047">
        <ele>1677.6</ele>
        <time>2015-09-20T10:55:14Z</time>
      </trkpt>
      <trkpt lat="45.99208" lon="6.4706">
        <ele>1677.6</ele>
        <time>2015-09-20T10:55:21Z</time>
      </trkpt>
      <trkpt lat="45.99211" lon="6.47072">
        <ele>1674.6</ele>
        <time>2015-09-20T10:55:30Z</time>
      </trkpt>
      <trkpt lat="45.99216" lon="6.47084">
        <ele>1673.6</ele>
        <time>2015-09-20T10:55:39Z</time>
      </trkpt>
      <trkpt lat="45.99216" lon="6.47097">
        <ele>1671.6</ele>
        <time>2015-09-20T10:55:47Z</time>
      </trkpt>
      <trkpt lat="45.99217" lon="6.47111">
        <ele>1667.6</ele>
        <time>2015-09-20T10:55:59Z</time>
      </trkpt>
      <trkpt lat="45.99222" lon="6.47127">
        <ele>1665.6</ele>
        <time>2015-09-20T10:56:12Z</time>
      </trkpt>
      <trkpt lat="45.99224" lon="6.47142">
        <ele>1663.6</ele>
        <time>2015-09-20T10:56:21Z</time>
      </trkpt>
      <trkpt lat="45.99224" lon="6.47155">
        <ele>1660.6</ele>
        <time>2015-09-20T10:56:31Z</time>
      </trkpt>
      <trkpt lat="45.99222" lon="6.47168">
        <ele>1658.6</ele>
        <time>2015-09-20T10:56:40Z</time>
      </trkpt>
      <trkpt lat="45.99218" lon="6.47183">
        <ele>1656.6</ele>
        <time>2015-09-20T10:56:51Z</time>
      </trkpt>
      <trkpt lat="45.99216" lon="6.47206">
        <ele>1651.6</ele>
        <time>2015-09-20T10:57:07Z</time>
      </trkpt>
      <trkpt lat="45.99215" lon="6.47222">
        <ele>1649.6</ele>
        <time>2015-09-20T10:57:16Z</time>
      </trkpt>
      <trkpt lat="45.99217" lon="6.47235">
        <ele>1649.6</ele>
        <time>2015-09-20T10:57:30Z</time>
      </trkpt>
      <trkpt lat="45.99216" lon="6.47249">
        <ele>1648.6</ele>
        <time>2015-09-20T10:57:40Z</time>
      </trkpt>
      <trkpt lat="45.99214" lon="6.47262">
        <ele>1645.6</ele>
        <time>2015-09-20T10:57:50Z</time>
      </trkpt>
      <trkpt lat="45.99214" lon="6.47277">
        <ele>1643.6</ele>
        <time>2015-09-20T10:57:58Z</time>
      </trkpt>
      <trkpt lat="45.99213" lon="6.47291">
        <ele>1643.6</ele>
        <time>2015-09-20T10:58:06Z</time>
      </trkpt>
      <trkpt lat="45.99211" lon="6.47305">
        <ele>1644.6</ele>
        <time>2015-09-20T10:58:14Z</time>
      </trkpt>
      <trkpt lat="45.99208" lon="6.47317">
        <ele>1643.6</ele>
        <time>2015-09-20T10:58:23Z</time>
      </trkpt>
      <trkpt lat="45.9921" lon="6.4733">
        <ele>1641.6</ele>
        <time>2015-09-20T10:58:31Z</time>
      </trkpt>
      <trkpt lat="45.99212" lon="6.47344">
        <ele>1641.6</ele>
        <time>2015-09-20T10:58:39Z</time>
      </trkpt>
      <trkpt lat="45.99215" lon="6.47359">
        <ele>1640.6</ele>
        <time>2015-09-20T10:58:48Z</time>
      </trkpt>
      <trkpt lat="45.99215" lon="6.47373">
        <ele>1639.6</ele>
        <time>2015-09-20T10:58:57Z</time>
      </trkpt>
      <trkpt lat="45.99215" lon="6.47391">
        <ele>1635.6</ele>
        <time>2015-09-20T10:59:11Z</time>
      </trkpt>
      <trkpt lat="45.99216" lon="6.47405">
        <ele>1630.6</ele>
        <time>2015-09-20T10:59:24Z</time>
      </trkpt>
      <trkpt lat="45.99216" lon="6.47419">
        <ele>1626.6</ele>
        <time>2015-09-20T10:59:36Z</time>
      </trkpt>
      <trkpt lat="45.99219" lon="6.47432">
        <ele>1624.6</ele>
        <time>2015-09-20T10:59:50Z</time>
      </trkpt>
      <trkpt lat="45.99222" lon="6.47445">
        <ele>1620.6</ele>
        <time>2015-09-20T11:00:00Z</time>
      </trkpt>
      <trkpt lat="45.99223" lon="6.47458">
        <ele>1619.6</ele>
        <time>2015-09-20T11:00:08Z</time>
      </trkpt>
      <trkpt lat="45.99226" lon="6.47472">
        <ele>1616.6</ele>
        <time>2015-09-20T11:00:16Z</time>
      </trkpt>
      <trkpt lat="45.99227" lon="6.47485">
        <ele>1614.6</ele>
        <time>2015-09-20T11:00:24Z</time>
      </trkpt>
      <trkpt lat="45.99226" lon="6.47498">
        <ele>1612.6</ele>
        <time>2015-09-20T11:00:32Z</time>
      </trkpt>
      <trkpt lat="45.99225" lon="6.47511">
        <ele>1610.6</ele>
        <time>2015-09-20T11:00:40Z</time>
      </trkpt>
      <trkpt lat="45.99227" lon="6.47526">
        <ele>1610.6</ele>
        <time>2015-09-20T11:00:48Z</time>
      </trkpt>
      <trkpt lat="45.99225" lon="6.4754">
        <ele>1608.6</ele>
        <time>2015-09-20T11:00:58Z</time>
      </trkpt>
      <trkpt lat="45.99219" lon="6.4755">
        <ele>1608.6</ele>
        <time>2015-09-20T11:01:07Z</time>
      </trkpt>
      <trkpt lat="45.99218" lon="6.47555">
        <ele>1608.6</ele>
        <time>2015-09-20T11:02:27Z</time>
      </trkpt>
    </trkseg>
  </trk>
</gpx>